Latest Weather Observations for Red Rocks Point

IDW60801

Issued at 11:33 am WST Monday 26 September 2016 (issued every 30 minutes, with the page automatically refreshed every 10 minutes)

About weather observations | Map of weather stations | Latest weather observations for WA | Other Formats
Station Details ID: 011053 Name: RED ROCKS POINT Lat: -32.20 Lon: 127.53 Height: 3.1 m
Data from the previous 72 hours. | See also: Recent months at Red Rocks Point
Date/Time
WST
Temp
°C
App
Temp
°C
Dew
Point
°C
Rel
Hum
%
Delta-T
°C
Wind Press
QNH
hPa
Press
MSL
hPa
Rain since
9am
mm
Dir  Spd
km/h
Gust
km/h
Spd
kts
Gust
kts
26/11:30am 16.8 11.2 3.5 41 6.1 SSW 22 32 12 17 1017.8 1017.8 0.0
26/11:00am 17.2 11.6 3.5 40 6.3 SSW 22 28 12 15 1018.2 1018.2 0.0
26/10:30am 16.9 12.0 3.9 42 6.1 SSW 19 26 10 14 1018.5 1018.5 0.0
26/10:00am 16.6 11.8 4.9 46 5.5 SSW 19 26 10 14 1018.5 1018.5 0.0
26/09:30am 16.4 11.4 3.5 42 5.9 SSW 19 24 10 13 1018.7 1018.7 0.0
26/09:00am 15.9 11.7 3.7 44 5.6 SSW 15 20 8 11 1018.8 1018.8 0.0
26/08:30am 15.4 10.9 4.2 47 5.2 S 17 20 9 11 1018.7 1018.7 0.0
26/08:00am 15.3 10.2 3.1 44 5.5 SW 19 24 10 13 1018.8 1018.8 0.0
26/07:30am 13.6 8.2 2.5 47 4.9 SW 20 28 11 15 1018.6 1018.6 0.0
26/07:00am 14.2 9.5 3.4 48 4.9 SW 17 22 9 12 1018.3 1018.3 0.0
26/06:30am 13.2 8.5 3.3 51 4.4 SW 17 24 9 13 1018.0 1018.0 0.0
26/06:00am 12.5 7.6 4.0 56 3.8 SW 19 30 10 16 1017.6 1017.6 0.0
26/05:30am 11.8 6.7 4.1 59 3.5 SW 20 30 11 16 1017.2 1017.2 0.0
26/05:00am 11.4 7.2 3.9 60 3.3 SSW 15 20 8 11 1016.9 1016.9 0.0
26/04:30am 11.3 6.7 3.8 60 3.3 SSW 17 26 9 14 1016.8 1016.8 0.0
26/04:00am 11.5 6.3 3.8 59 3.4 SSW 20 30 11 16 1016.6 1016.6 0.0
26/03:30am 11.8 6.4 4.5 61 3.3 SSW 22 30 12 16 1016.4 1016.4 0.0
26/03:00am 11.8 6.4 4.3 60 3.4 SSW 22 33 12 18 1016.2 1016.2 0.0
26/02:30am 12.3 6.4 5.7 64 3.1 SSW 26 35 14 19 1016.1 1016.1 0.0
26/02:00am 12.0 6.5 4.2 59 3.5 SW 22 32 12 17 1016.2 1016.2 0.0
26/01:30am 12.2 6.1 4.9 61 3.3 SSW 26 37 14 20 1016.4 1016.4 0.0
26/01:00am 12.3 6.5 4.5 59 3.5 SSW 24 35 13 19 1016.6 1016.6 0.0
26/12:30am 12.6 7.1 5.8 63 3.2 SSW 24 33 13 18 1016.7 1016.7 0.0
26/12:00am 12.6 5.7 4.6 58 3.6 SSW 30 39 16 21 1016.9 1016.9 0.0
 
Date/Time
WST
Temp
°C
App
Temp
°C
Dew
Point
°C
Rel
Hum
%
Delta-T
°C
Wind Press
QNH
hPa
Press
MSL
hPa
Rain since
9am
mm
Dir  Spd
km/h
Gust
km/h
Spd
kts
Gust
kts
25/11:30pm 12.8 6.3 4.5 57 3.8 SSW 28 39 15 21 1016.9 1016.9 0.0
25/11:00pm 13.2 7.1 6.5 64 3.2 SSW 28 39 15 21 1016.8 1016.8 0.0
25/10:30pm 13.3 7.7 7.1 66 3.0 SSW 26 37 14 20 1016.9 1016.9 0.0
25/10:00pm 13.3 7.2 6.6 64 3.2 SSW 28 41 15 22 1016.9 1016.9 0.0
25/09:30pm 13.2 7.6 7.2 67 2.9 SSW 26 39 14 21 1016.8 1016.8 0.0
25/09:00pm 13.3 6.6 7.3 67 2.9 SSW 32 43 17 23 1016.7 1016.7 0.0
25/08:30pm 13.7 7.3 8.5 71 2.6 SSW 32 44 17 24 1016.5 1016.5 0.0
25/08:11pm 13.7 7.3 9.2 74 2.3 SSW 33 52 18 28 1016.3 1016.3 0.0
25/08:00pm 13.9 7.7 9.3 74 2.3 SSW 32 46 17 25 1016.2 1016.2 0.0
25/07:30pm 14.2 7.9 9.6 74 2.4 SSW 33 44 18 24 1015.7 1015.7 0.0
25/07:01pm 14.9 8.3 10.1 73 2.5 SW 35 54 19 29 1015.3 1015.3 0.0
25/07:00pm 15.0 8.8 10.2 73 2.5 SW 33 48 18 26 1015.2 1015.2 0.0
25/06:47pm 15.0 9.5 9.1 68 3.0 SSW 28 46 15 25 1014.8 1014.8 0.0
25/06:30pm 14.7 10.7 9.1 69 2.9 SW 20 32 11 17 1014.4 1014.4 0.0
25/06:00pm 14.4 11.3 8.8 69 2.8 SSW 15 20 8 11 1013.6 1013.6 0.0
25/05:30pm 14.9 11.0 8.8 67 3.1 SSW 19 26 10 14 1012.8 1012.8 0.0
25/05:00pm 15.7 11.7 8.4 62 3.7 SSW 19 26 10 14 1012.4 1012.4 0.0
25/04:30pm 16.5 11.3 9.0 61 3.9 SSW 26 33 14 18 1011.7 1011.7 0.0
25/04:00pm 17.7 12.4 9.8 60 4.2 SSW 28 39 15 21 1011.0 1011.0 0.0
25/03:58pm 17.7 12.5 10.1 61 4.0 SSW 28 39 15 21 1011.0 1011.0 0.0
25/03:30pm 19.2 16.5 9.1 52 5.3 S 13 19 7 10 1010.2 1010.2 0.0
25/03:00pm 18.7 16.0 11.8 64 3.8 SSE 17 20 9 11 1009.5 1009.5 0.0
25/02:30pm 20.7 17.3 7.7 43 6.7 S 15 20 8 11 1009.0 1009.0 0.0
25/02:00pm 25.7 18.9 -2.0 16 12.4 NW 24 43 13 23 1008.7 1008.7 0.0
25/01:30pm 25.1 18.2 -2.5 16 12.1 NW 24 39 13 21 1009.1 1009.1 0.0
25/01:00pm 24.8 17.5 -2.7 16 12.0 NW 26 44 14 24 1009.6 1009.6 0.0
25/12:30pm 24.1 18.3 -1.7 18 11.4 NW 19 39 10 21 1010.1 1010.1 0.0
25/12:00pm 24.7 18.9 -1.2 18 11.6 NW 19 33 10 18 1010.7 1010.7 0.0
25/11:30am 23.7 17.9 -1.3 19 11.1 NW 19 35 10 19 1011.3 1011.3 0.0
25/11:00am 22.8 16.8 -1.3 20 10.6 NNW 20 35 11 19 1012.1 1012.1 0.0
25/10:30am 22.7 16.6 0.5 23 10.1 NNW 22 32 12 17 1012.5 1012.5 0.0
25/10:00am 21.3 15.8 2.1 28 8.9 N 20 32 11 17 1013.1 1013.1 0.0
25/09:30am 19.9 13.9 3.2 33 7.9 N 24 39 13 21 1013.7 1013.7 0.0
25/09:00am 18.9 12.9 3.1 35 7.4 N 24 37 13 20 1013.9 1013.9 0.0
25/08:30am 17.2 10.3 2.8 38 6.6 N 28 43 15 23 1014.1 1014.1 0.0
25/08:00am 15.6 8.9 3.4 44 5.6 N 28 39 15 21 1014.3 1014.3 0.0
25/07:30am 13.7 7.7 3.5 50 4.6 N 24 33 13 18 1014.3 1014.3 0.0
25/07:00am 10.7 5.6 4.0 63 3.0 N 20 32 11 17 1014.4 1014.4 0.0
25/06:30am 8.4 3.1 3.1 69 2.3 N 20 30 11 16 1014.3 1014.3 0.0
25/06:00am 6.8 1.4 2.5 74 1.8 N 20 28 11 15 1014.4 1014.4 0.0
25/05:30am 5.2 -0.3 1.9 79 1.3 N 20 28 11 15 1014.4 1014.4 0.0
25/05:00am 5.1 -0.2 1.8 79 1.3 N 19 24 10 13 1014.3 1014.3 0.0
25/04:30am 5.3 0.0 1.8 78 1.4 N 19 26 10 14 1014.3 1014.3 0.0
25/04:00am 5.2 -0.1 1.9 79 1.3 N 19 24 10 13 1014.3 1014.3 0.0
25/03:30am 5.4 0.1 2.1 79 1.3 N 19 26 10 14 1014.2 1014.2 0.0
25/03:00am 5.1 0.2 2.1 81 1.2 N 17 22 9 12 1014.3 1014.3 0.0
25/02:30am 5.2 0.3 2.2 81 1.2 N 17 20 9 11 1014.3 1014.3 0.0
25/02:00am 5.5 0.6 2.2 79 1.3 N 17 20 9 11 1014.6 1014.6 0.0
25/01:30am 6.1 1.3 2.6 78 1.4 N 17 20 9 11 1014.9 1014.9 0.0
25/01:00am 6.1 1.3 2.4 77 1.5 N 17 20 9 11 1015.2 1015.2 0.0
25/12:30am 6.1 1.3 2.6 78 1.4 N 17 20 9 11 1015.3 1015.3 0.0
25/12:00am 5.8 1.0 2.4 79 1.4 N 17 20 9 11 1015.6 1015.6 0.0
 
Date/Time
WST
Temp
°C
App
Temp
°C
Dew
Point
°C
Rel
Hum
%
Delta-T
°C
Wind Press
QNH
hPa
Press
MSL
hPa
Rain since
9am
mm
Dir  Spd
km/h
Gust
km/h
Spd
kts
Gust
kts
24/11:30pm 6.3 1.1 2.6 77 1.5 N 19 22 10 12 1015.9 1015.9 0.0
24/11:00pm 6.8 2.1 3.1 77 1.5 N 17 22 9 12 1016.1 1016.1 0.0
24/10:30pm 7.2 2.5 3.3 76 1.6 N 17 20 9 11 1016.5 1016.5 0.0
24/10:00pm 7.4 2.7 3.3 75 1.7 N 17 20 9 11 1016.6 1016.6 0.0
24/09:30pm 7.5 3.6 3.2 74 1.8 N 13 17 7 9 1016.7 1016.7 0.0
24/09:00pm 8.6 5.1 3.4 70 2.2 N 11 13 6 7 1016.7 1016.7 0.0
24/08:30pm 12.7 8.6 6.3 65 3.0 E 17 19 9 10 1016.5 1016.5 0.0
24/08:00pm 12.6 8.5 6.4 66 2.9 ESE 17 20 9 11 1016.4 1016.4 0.0
24/07:30pm 12.7 8.6 6.3 65 3.0 SE 17 20 9 11 1016.4 1016.4 0.0
24/07:00pm 12.8 8.7 6.2 64 3.1 SE 17 19 9 10 1016.3 1016.3 0.0
24/06:30pm 12.7 8.5 5.8 63 3.2 SSE 17 20 9 11 1015.9 1015.9 0.0
24/06:00pm 12.5 7.9 5.7 63 3.2 S 19 20 10 11 1015.8 1015.8 0.0
24/05:30pm 12.5 7.9 5.4 62 3.3 S 19 22 10 12 1015.3 1015.3 0.0
24/05:00pm 12.9 7.9 4.8 58 3.7 S 20 24 11 13 1015.1 1015.1 0.0
24/04:30pm 13.5 8.7 5.4 58 3.8 SSW 20 26 11 14 1015.2 1015.2 0.0
24/04:00pm 14.2 9.5 6.1 58 3.9 SSW 20 28 11 15 1015.2 1015.2 0.0
24/03:30pm 14.8 9.3 6.1 56 4.2 SSW 24 30 13 16 1015.2 1015.2 0.0
24/03:00pm 15.5 9.5 3.6 45 5.4 SSW 24 33 13 18 1015.0 1015.0 0.0
24/02:30pm 15.8 9.9 3.9 45 5.5 SSW 24 33 13 18 1014.9 1014.9 0.0
24/02:00pm 15.9 9.6 4.0 45 5.5 SW 26 33 14 18 1015.2 1015.2 0.0
24/01:30pm 16.1 9.9 4.2 45 5.5 SW 26 37 14 20 1015.1 1015.1 0.0
24/01:00pm 15.7 9.8 4.1 46 5.4 SW 24 35 13 19 1015.3 1015.3 0.0
24/12:30pm 16.1 10.4 4.8 47 5.3 SW 24 32 13 17 1015.7 1015.7 0.0
24/12:00pm 15.7 10.0 5.0 49 5.0 SW 24 32 13 17 1015.6 1015.6 0.0
24/11:30am 16.0 11.0 4.7 47 5.3 SW 20 28 11 15 1015.8 1015.8 0.0
24/11:00am 16.3 11.9 6.7 53 4.7 SW 19 26 10 14 1016.0 1016.0 0.0
24/10:30am 15.1 11.1 6.7 57 4.1 SW 17 22 9 12 1016.0 1016.0 0.0
24/10:00am 13.8 8.7 5.9 59 3.7 SW 22 33 12 18 1016.3 1016.3 0.0
24/09:30am 14.7 10.4 7.0 60 3.8 SW 19 26 10 14 1016.2 1016.2 0.0
24/09:00am 13.7 8.6 7.7 67 2.9 SW 24 35 13 19 1016.2 1016.2 2.8
24/08:30am 13.4 8.9 8.5 72 2.4 SW 22 33 12 18 1015.9 1015.9 2.8
24/08:00am 12.3 9.1 8.6 78 1.8 W 15 20 8 11 1015.5 1015.5 2.8
24/07:30am 10.6 7.0 8.4 86 1.1 WSW 17 28 9 15 1015.1 1015.1 2.8
24/07:00am 9.3 6.2 7.4 88 0.9 WNW 13 20 7 11 1014.8 1014.8 2.6
24/06:30am 9.9 5.6 7.8 87 1.0 WSW 20 39 11 21 1014.6 1014.6 1.6
24/06:00am 9.1 6.0 7.4 89 0.8 WNW 13 19 7 10 1013.8 1013.8 1.4
24/05:30am 8.9 5.0 6.9 87 0.9 WNW 17 20 9 11 1013.3 1013.3 1.4
24/05:00am 9.6 6.4 6.7 82 1.4 W 13 19 7 10 1012.7 1012.7 0.0
24/04:30am 12.2 7.3 6.9 70 2.5 WSW 22 32 12 17 1012.1 1012.1 0.0
24/04:00am 11.7 6.6 5.8 67 2.7 SW 22 33 12 18 1011.7 1011.7 0.0
24/03:30am 11.7 6.1 5.6 66 2.8 SW 24 35 13 19 1011.4 1011.4 0.0
24/03:00am 12.0 6.1 7.7 75 2.1 SW 28 37 15 20 1011.1 1011.1 0.0
24/02:30am 12.0 6.2 6.3 68 2.7 SW 26 37 14 20 1010.9 1010.9 0.0
24/02:00am 12.2 6.0 6.3 67 2.8 SW 28 39 15 21 1010.7 1010.7 0.0
24/01:30am 12.5 7.4 7.6 72 2.4 SW 24 35 13 19 1010.6 1010.6 0.0
24/01:00am 12.7 7.1 7.2 69 2.7 SW 26 39 14 21 1010.7 1010.7 0.0
24/12:30am 12.8 7.7 7.5 70 2.6 WSW 24 37 13 20 1011.0 1011.0 0.0
24/12:00am 12.7 7.4 7.0 68 2.7 SW 24 32 13 17 1010.9 1010.9 0.0
 
Date/Time
WST
Temp
°C
App
Temp
°C
Dew
Point
°C
Rel
Hum
%
Delta-T
°C
Wind Press
QNH
hPa
Press
MSL
hPa
Rain since
9am
mm
Dir  Spd
km/h
Gust
km/h
Spd
kts
Gust
kts
23/11:30pm 12.9 7.8 7.6 70 2.6 SW 24 35 13 19 1011.0 1011.0 0.0
23/11:00pm 12.9 7.7 7.4 69 2.7 SW 24 35 13 19 1011.0 1011.0 0.0
23/10:30pm 13.1 7.7 8.0 71 2.5 SW 26 35 14 19 1011.0 1011.0 0.0
23/10:00pm 13.2 7.6 7.2 67 2.9 WSW 26 39 14 21 1011.1 1011.1 0.0
23/09:30pm 13.2 9.0 8.1 71 2.5 SW 20 30 11 16 1010.9 1010.9 0.0
23/09:00pm 13.3 8.7 8.2 71 2.5 SW 22 32 12 17 1010.8 1010.8 0.0
23/08:30pm 13.5 8.1 8.1 70 2.7 SW 26 43 14 23 1010.8 1010.8 0.0
23/08:00pm 13.6 7.7 7.6 67 2.9 SW 28 39 15 21 1010.7 1010.7 0.0
23/07:30pm 13.4 8.0 7.8 69 2.8 SW 26 37 14 20 1010.4 1010.4 0.0
23/07:00pm 13.5 9.5 9.2 75 2.2 SW 20 28 11 15 1010.0 1010.0 0.0
23/06:30pm 13.6 9.6 8.9 73 2.4 SW 20 30 11 16 1009.4 1009.4 0.0
23/06:00pm 13.8 9.6 9.6 76 2.2 SW 22 33 12 18 1008.9 1008.9 0.0
23/05:30pm 14.0 9.3 9.4 74 2.4 SW 24 33 13 18 1008.5 1008.5 0.0
23/05:00pm 14.7 10.2 9.9 73 2.5 SW 24 37 13 20 1007.8 1007.8 0.0
23/04:30pm 15.4 10.9 10.2 71 2.7 SW 24 39 13 21 1007.3 1007.3 0.0
23/04:00pm 15.9 11.1 10.4 70 2.9 SW 26 37 14 20 1006.9 1006.9 0.0
23/03:30pm 16.1 10.5 10.2 68 3.1 SW 30 41 16 22 1006.4 1006.4 0.0
23/03:00pm 17.0 11.8 10.4 65 3.5 SW 28 44 15 24 1006.0 1006.0 0.0
23/02:30pm 16.8 10.6 10.2 65 3.5 SW 33 52 18 28 1005.7 1005.7 0.0
23/02:00pm 17.5 12.0 11.8 69 3.1 SW 32 44 17 24 1005.4 1005.4 0.0
23/01:30pm 17.9 12.3 11.5 66 3.5 SW 32 46 17 25 1005.3 1005.3 0.0
23/01:15pm 18.1 12.5 11.4 65 3.7 SW 32 50 17 27 1005.4 1005.4 0.0
23/01:00pm 18.4 13.6 11.5 64 3.8 SW 28 44 15 24 1005.4 1005.4 0.0
23/12:30pm 18.4 12.6 11.5 64 3.8 SW 33 46 18 25 1005.4 1005.4 0.0
23/12:00pm 18.5 13.3 11.6 64 3.8 SW 30 41 16 22 1005.6 1005.6 0.0

Other Formats:

Comma delimited format used in spreadsheet applications
http://www.bom.gov.au/fwo/IDW60801/IDW60801.94644.axf

JavaScript Object Notation format (JSON) in row-major order
http://www.bom.gov.au/fwo/IDW60801/IDW60801.94644.json